createdAt,value
2018-02-24T00:01:17.879Z,37.10
2018-02-24T00:03:44.599Z,35.23
2018-02-24T00:06:12.260Z,34.92
2018-02-24T00:08:38.986Z,34.00
2018-02-24T00:11:05.695Z,37.27
2018-02-24T00:13:32.466Z,33.57
2018-02-24T00:15:59.186Z,35.50
2018-02-24T00:18:25.914Z,34.75
2018-02-24T00:20:52.642Z,32.70
2018-02-24T00:23:19.356Z,33.83
2018-02-24T00:25:46.093Z,33.90
2018-02-24T00:28:12.816Z,34.40
2018-02-24T00:30:39.519Z,33.10
2018-02-24T00:33:06.264Z,33.77
2018-02-24T00:35:32.986Z,31.40
2018-02-24T00:37:59.712Z,33.70
2018-02-24T00:40:26.449Z,30.80
2018-02-24T00:42:53.161Z,31.93
2018-02-24T00:45:19.897Z,31.50
2018-02-24T00:47:46.614Z,29.83
2018-02-24T00:50:13.369Z,31.70
2018-02-24T00:52:40.078Z,28.37
2018-02-24T00:55:06.802Z,33.07
2018-02-24T00:57:33.563Z,32.30
2018-02-24T01:00:00.273Z,33.00
2018-02-24T01:02:27.104Z,33.30
2018-02-24T01:04:53.810Z,35.20
2018-02-24T01:07:20.550Z,32.90
2018-02-24T01:09:47.265Z,33.27
2018-02-24T01:12:13.970Z,33.60
2018-02-24T01:14:40.742Z,34.28
2018-02-24T01:17:07.449Z,32.90
2018-02-24T01:19:34.169Z,33.00
2018-02-24T01:22:00.899Z,34.60
2018-02-24T01:24:27.627Z,33.45
2018-02-24T01:26:54.354Z,33.27
2018-02-24T01:29:21.075Z,32.63
2018-02-24T01:31:47.802Z,33.60
2018-02-24T01:34:14.528Z,32.90
2018-02-24T01:36:41.259Z,30.70
2018-02-24T01:39:07.985Z,32.53
2018-02-24T01:41:34.702Z,30.50
2018-02-24T01:44:01.430Z,32.67
2018-02-24T01:46:28.135Z,32.50
2018-02-24T01:48:55.181Z,34.90
2018-02-24T01:51:21.902Z,31.70
2018-02-24T01:53:48.605Z,33.80
2018-02-24T01:56:15.330Z,33.10
2018-02-24T01:58:42.075Z,34.27
2018-02-24T02:01:08.809Z,33.10
2018-02-24T02:03:35.523Z,35.67
2018-02-24T02:06:02.274Z,33.97
2018-02-24T02:08:29.005Z,36.73
2018-02-24T02:10:55.714Z,34.60
2018-02-24T02:13:22.471Z,34.80
2018-02-24T02:15:49.205Z,37.27
2018-02-24T02:18:15.935Z,36.23
2018-02-24T02:20:42.683Z,37.90
2018-02-24T02:23:09.418Z,34.77
2018-02-24T02:25:36.142Z,35.30
2018-02-24T02:28:02.931Z,35.30
2018-02-24T02:30:29.660Z,35.60
2018-02-24T02:32:56.387Z,35.20
2018-02-24T02:35:23.095Z,35.80
2018-02-24T02:37:49.826Z,36.70
2018-02-24T02:40:16.531Z,37.37
2018-02-24T02:42:43.256Z,37.33
2018-02-24T02:45:09.976Z,36.33
2018-02-24T02:47:36.671Z,36.80
2018-02-24T02:50:03.463Z,37.03
2018-02-24T02:52:30.164Z,40.33
2018-02-24T02:54:56.907Z,39.10
2018-02-24T02:57:23.636Z,42.80
2018-02-24T02:59:50.339Z,44.70
2018-02-24T03:02:17.114Z,44.60
2018-02-24T03:04:43.818Z,43.77
2018-02-24T03:07:10.536Z,42.90
2018-02-24T03:09:37.266Z,42.47
2018-02-24T03:12:03.970Z,42.20
2018-02-24T03:14:30.709Z,44.27
2018-02-24T03:16:57.440Z,43.10
2018-02-24T03:19:24.153Z,41.60
2018-02-24T03:21:50.878Z,42.67
2018-02-24T03:24:17.617Z,42.42
2018-02-24T03:26:44.335Z,41.00
2018-02-24T03:29:11.081Z,42.97
2018-02-24T03:31:37.796Z,40.10
2018-02-24T03:34:04.540Z,42.60
2018-02-24T03:36:31.268Z,40.12
2018-02-24T03:38:58.005Z,40.55
2018-02-24T03:41:24.749Z,41.90
2018-02-24T03:43:51.541Z,39.13
2018-02-24T03:46:18.942Z,41.57
2018-02-24T03:48:45.657Z,41.20
2018-02-24T03:51:12.391Z,42.70
2018-02-24T03:53:39.136Z,41.63
2018-02-24T03:56:05.853Z,42.85
2018-02-24T03:58:32.614Z,41.40
2018-02-24T04:00:59.347Z,46.58
2018-02-24T04:03:26.055Z,40.10
2018-02-24T04:05:52.822Z,41.85
2018-02-24T04:08:19.584Z,41.77
2018-02-24T04:10:46.368Z,40.70
2018-02-24T04:13:13.126Z,41.70
2018-02-24T04:15:39.843Z,43.93
2018-02-24T04:18:06.570Z,42.00
2018-02-24T04:20:33.325Z,43.95
2018-02-24T04:23:00.066Z,40.25
2018-02-24T04:25:26.815Z,39.75
2018-02-24T04:27:53.522Z,38.00
2018-02-24T04:30:20.270Z,40.35
2018-02-24T04:32:46.998Z,42.38
2018-02-24T04:35:13.731Z,41.67
2018-02-24T04:37:40.472Z,40.15
2018-02-24T04:40:07.190Z,40.28
2018-02-24T04:42:33.916Z,39.70
2018-02-24T04:45:00.651Z,40.55
2018-02-24T04:47:27.388Z,43.87
2018-02-24T04:49:54.134Z,39.03
2018-02-24T04:52:20.850Z,39.22
2018-02-24T04:54:47.588Z,43.25
2018-02-24T04:57:14.318Z,42.50
2018-02-24T04:59:41.067Z,999.90
2018-02-24T05:02:07.797Z,999.90
2018-02-24T05:04:34.518Z,96.22
2018-02-24T05:07:01.281Z,548.97
2018-02-24T05:09:28.005Z,999.90
2018-02-24T05:11:54.758Z,999.90
2018-02-24T05:14:21.517Z,999.90
2018-02-24T05:16:48.253Z,999.90
2018-02-24T05:19:15.015Z,999.90
2018-02-24T05:21:41.747Z,999.90
2018-02-24T05:24:08.519Z,999.90
2018-02-24T05:26:35.249Z,999.90
2018-02-24T05:29:02.006Z,999.90
2018-02-24T05:31:28.752Z,765.03
2018-02-24T05:33:55.489Z,999.90
2018-02-24T05:36:22.241Z,999.90
2018-02-24T05:38:48.972Z,999.90
2018-02-24T05:41:15.723Z,999.90
2018-02-24T05:43:42.469Z,999.90
2018-02-24T05:46:09.243Z,999.90
2018-02-24T05:48:35.968Z,999.90
2018-02-24T05:51:02.725Z,999.90
2018-02-24T05:53:29.479Z,82.82
2018-02-24T05:55:56.212Z,105.57
2018-02-24T05:58:22.946Z,144.48
2018-02-24T06:00:49.691Z,159.73
2018-02-24T06:03:16.433Z,154.10
2018-02-24T06:05:43.172Z,152.12
2018-02-24T06:08:09.916Z,154.93
2018-02-24T06:10:36.663Z,139.75
2018-02-24T06:13:03.462Z,999.90
2018-02-24T06:15:30.211Z,999.90
2018-02-24T06:17:56.937Z,999.90
2018-02-24T06:20:23.682Z,520.15
2018-02-24T06:22:50.426Z,127.40
2018-02-24T06:25:17.151Z,131.93
2018-02-24T06:27:43.895Z,155.85
2018-02-24T06:30:10.638Z,146.05
2018-02-24T06:32:37.391Z,122.35
2018-02-24T06:35:04.165Z,132.63
2018-02-24T06:37:30.914Z,140.25
2018-02-24T06:39:57.659Z,143.35
2018-02-24T06:42:24.400Z,126.85
2018-02-24T06:44:51.146Z,999.90
2018-02-24T06:47:17.924Z,115.25
2018-02-24T06:49:44.663Z,130.98
2018-02-24T06:52:11.411Z,124.43
2018-02-24T06:54:38.160Z,129.25
2018-02-24T06:57:04.901Z,146.80
2018-02-24T06:59:31.648Z,136.45
2018-02-24T07:01:58.395Z,123.03
2018-02-24T07:04:25.123Z,128.12
2018-02-24T07:06:51.870Z,142.48
2018-02-24T07:09:18.587Z,361.67
2018-02-24T07:11:45.353Z,999.90
2018-02-24T07:14:12.092Z,999.90
2018-02-24T07:16:38.830Z,999.90
2018-02-24T07:19:05.569Z,126.80
2018-02-24T07:21:32.282Z,116.85
2018-02-24T07:23:59.059Z,999.90
2018-02-24T07:26:25.788Z,999.90
2018-02-24T07:28:52.519Z,999.90
2018-02-24T07:31:19.283Z,999.90
2018-02-24T07:33:46.015Z,999.90
2018-02-24T07:36:12.765Z,999.90
2018-02-24T07:38:39.499Z,999.90
2018-02-24T07:41:06.266Z,999.90
2018-02-24T07:43:33.035Z,999.90
2018-02-24T07:45:59.757Z,52.00
2018-02-24T07:48:26.500Z,133.77
2018-02-24T07:50:53.227Z,126.82
2018-02-24T07:53:19.968Z,999.90
2018-02-24T07:55:46.709Z,999.90
2018-02-24T07:58:13.447Z,999.90
2018-02-24T08:00:40.200Z,999.90
2018-02-24T08:03:06.933Z,999.90
2018-02-24T08:05:33.676Z,999.90
2018-02-24T08:08:00.392Z,999.90
2018-02-24T08:10:27.158Z,999.90
2018-02-24T08:12:53.896Z,999.90
2018-02-24T08:15:20.636Z,999.90
2018-02-24T08:17:47.378Z,999.90
2018-02-24T08:20:14.097Z,999.90
2018-02-24T08:22:40.848Z,999.90
2018-02-24T08:25:07.571Z,99.30
2018-02-24T08:27:34.314Z,999.90
2018-02-24T08:30:01.066Z,999.90
2018-02-24T08:32:27.809Z,999.90
2018-02-24T08:34:54.583Z,999.90
2018-02-24T08:37:21.303Z,999.90
2018-02-24T08:39:48.029Z,999.90
2018-02-24T08:42:14.786Z,999.90
2018-02-24T08:44:41.528Z,999.90
2018-02-24T08:47:08.311Z,999.90
2018-02-24T08:49:35.057Z,999.90
2018-02-24T08:52:01.828Z,999.90
2018-02-24T08:54:28.571Z,104.73
2018-02-24T08:56:55.303Z,71.37
2018-02-24T08:59:22.044Z,62.70
2018-02-24T09:01:48.761Z,66.20
2018-02-24T09:04:15.490Z,66.28
2018-02-24T09:06:42.230Z,70.75
2018-02-24T09:09:08.969Z,78.35
2018-02-24T09:11:35.703Z,82.57
2018-02-24T09:14:02.458Z,89.87
2018-02-24T09:16:29.197Z,93.00
2018-02-24T09:18:55.932Z,106.37
2018-02-24T09:21:22.702Z,68.37
2018-02-24T09:23:49.496Z,79.10
2018-02-24T09:26:16.216Z,49.08
2018-02-24T09:28:42.949Z,51.65
2018-02-24T09:31:09.673Z,54.10
2018-02-24T09:33:36.418Z,59.08
2018-02-24T09:36:03.185Z,59.58
2018-02-24T09:38:29.923Z,54.60
2018-02-24T09:40:56.666Z,53.65
2018-02-24T09:43:23.408Z,52.20
2018-02-24T09:45:50.147Z,51.55
2018-02-24T09:48:16.901Z,50.95
2018-02-24T09:50:43.633Z,53.57
2018-02-24T09:53:10.443Z,55.75
2018-02-24T09:55:37.190Z,55.00
2018-02-24T09:58:03.925Z,66.03
2018-02-24T10:00:30.669Z,57.03
2018-02-24T10:02:57.417Z,59.00
2018-02-24T10:05:24.142Z,54.43
2018-02-24T10:07:50.921Z,58.30
2018-02-24T10:10:17.631Z,56.07
2018-02-24T10:12:44.366Z,56.70
2018-02-24T10:15:11.111Z,58.40
2018-02-24T10:17:37.854Z,56.63
2018-02-24T10:20:04.602Z,60.95
2018-02-24T10:22:31.330Z,59.47
2018-02-24T10:24:58.094Z,61.23
2018-02-24T10:27:24.822Z,58.00
2018-02-24T10:29:51.532Z,59.57
2018-02-24T10:32:18.261Z,61.10
2018-02-24T10:34:44.982Z,63.67
2018-02-24T10:37:11.733Z,59.43
2018-02-24T10:39:38.467Z,61.30
2018-02-24T10:42:05.272Z,62.33
2018-02-24T10:44:31.973Z,64.47
2018-02-24T10:46:58.683Z,64.43
2018-02-24T10:49:25.614Z,60.07
2018-02-24T10:51:52.354Z,66.30
2018-02-24T10:54:19.075Z,64.97
2018-02-24T10:56:45.818Z,68.90
2018-02-24T10:59:12.540Z,67.07
2018-02-24T11:01:39.266Z,71.97
2018-02-24T11:04:06.006Z,71.10
2018-02-24T11:06:32.749Z,66.93
2018-02-24T11:08:59.485Z,56.87
2018-02-24T11:11:26.256Z,62.07
2018-02-24T11:13:52.992Z,55.13
2018-02-24T11:16:19.719Z,51.50
2018-02-24T11:18:46.446Z,51.93
2018-02-24T11:21:13.169Z,57.43
2018-02-24T11:23:39.895Z,58.37
2018-02-24T11:26:06.624Z,49.60
2018-02-24T11:28:33.366Z,51.63
2018-02-24T11:31:00.106Z,51.37
2018-02-24T11:33:26.851Z,49.43
2018-02-24T11:35:53.587Z,55.07
2018-02-24T11:38:20.324Z,56.53
2018-02-24T11:40:47.081Z,54.47
2018-02-24T11:43:13.827Z,58.87
2018-02-24T11:45:40.556Z,53.90
2018-02-24T11:48:07.312Z,51.87
2018-02-24T11:50:34.055Z,45.33
2018-02-24T11:53:00.801Z,48.90
2018-02-24T11:55:27.554Z,54.80
2018-02-24T11:57:54.266Z,51.63
2018-02-24T12:00:21.021Z,52.90
2018-02-24T12:02:47.761Z,52.43
2018-02-24T12:05:14.494Z,52.43
2018-02-24T12:07:41.262Z,49.70
2018-02-24T12:10:07.986Z,48.37
2018-02-24T12:12:34.765Z,48.63
2018-02-24T12:15:01.512Z,50.70
2018-02-24T12:17:28.257Z,53.90
2018-02-24T12:19:54.997Z,50.53
2018-02-24T12:22:21.724Z,50.30
2018-02-24T12:24:48.438Z,41.20
2018-02-24T12:27:15.176Z,35.80
2018-02-24T12:29:41.916Z,999.90
2018-02-24T12:32:08.645Z,999.90
2018-02-24T12:34:35.398Z,999.90
2018-02-24T12:37:02.134Z,35.10
2018-02-24T12:39:28.878Z,35.90
2018-02-24T12:41:55.594Z,36.47
2018-02-24T12:44:22.378Z,999.90
2018-02-24T12:46:49.126Z,100.93
2018-02-24T12:49:15.874Z,999.90
2018-02-24T12:51:42.594Z,999.90
2018-02-24T12:54:09.359Z,999.90
2018-02-24T12:56:36.110Z,999.90
2018-02-24T12:59:02.837Z,999.90
2018-02-24T13:01:29.575Z,999.90
2018-02-24T13:03:56.316Z,999.90
2018-02-24T13:06:23.105Z,999.90
2018-02-24T13:08:49.852Z,999.90
2018-02-24T13:11:16.622Z,999.90
2018-02-24T13:13:43.385Z,999.90
2018-02-24T13:16:10.133Z,999.90
2018-02-24T13:18:36.888Z,99.73
2018-02-24T13:21:03.606Z,58.70
2018-02-24T13:23:30.373Z,125.90
2018-02-24T13:25:57.099Z,999.90
2018-02-24T13:28:23.832Z,128.93
2018-02-24T13:30:50.595Z,134.80
2018-02-24T13:33:17.366Z,999.90
2018-02-24T13:35:44.118Z,38.10
2018-02-24T13:38:10.875Z,468.43
2018-02-24T13:40:37.635Z,134.80
2018-02-24T13:43:04.406Z,123.43
2018-02-24T13:45:31.134Z,109.20
2018-02-24T13:47:57.915Z,999.90
2018-02-24T13:50:24.679Z,999.90
2018-02-24T13:52:51.461Z,999.90
2018-02-24T13:55:18.170Z,152.43
2018-02-24T13:57:44.910Z,150.77
2018-02-24T14:00:11.663Z,52.60
2018-02-24T14:02:38.375Z,50.53
2018-02-24T14:05:05.122Z,45.97
2018-02-24T14:07:31.843Z,117.50
2018-02-24T14:09:58.602Z,57.73
2018-02-24T14:12:25.343Z,999.90
2018-02-24T14:14:52.085Z,32.27
2018-02-24T14:17:18.816Z,32.63
2018-02-24T14:19:45.523Z,31.30
2018-02-24T14:22:12.263Z,34.40
2018-02-24T14:24:38.993Z,31.60
2018-02-24T14:27:05.712Z,32.60
2018-02-24T14:29:32.449Z,33.20
2018-02-24T14:31:59.217Z,30.00
2018-02-24T14:34:25.954Z,30.63
2018-02-24T14:36:52.698Z,30.60
2018-02-24T14:39:19.452Z,31.57
2018-02-24T14:41:46.195Z,30.70
2018-02-24T14:44:12.915Z,30.73
2018-02-24T14:46:39.677Z,33.33
2018-02-24T14:49:06.420Z,39.67
2018-02-24T14:51:33.155Z,33.40
2018-02-24T14:53:59.879Z,60.90
2018-02-24T14:56:26.597Z,33.77
2018-02-24T14:58:53.367Z,29.87
2018-02-24T15:01:20.086Z,32.87
2018-02-24T15:03:46.805Z,33.27
2018-02-24T15:06:13.554Z,28.07
2018-02-24T15:08:40.318Z,36.50
2018-02-24T15:11:07.050Z,27.20
2018-02-24T15:13:33.786Z,25.53
2018-02-24T15:16:00.491Z,24.73
2018-02-24T15:18:27.221Z,27.37
2018-02-24T15:20:53.956Z,25.23
2018-02-24T15:23:20.693Z,23.60
2018-02-24T15:25:47.435Z,25.40
2018-02-24T15:28:14.206Z,24.00
2018-02-24T15:30:40.914Z,23.37
2018-02-24T15:33:07.675Z,23.90
2018-02-24T15:35:34.434Z,26.40
2018-02-24T15:38:01.152Z,26.93
2018-02-24T15:40:27.898Z,25.80
2018-02-24T15:42:54.629Z,25.35
2018-02-24T15:45:21.333Z,27.73
2018-02-24T15:47:48.091Z,26.42
2018-02-24T15:50:14.826Z,25.48
2018-02-24T15:52:41.579Z,25.73
2018-02-24T15:55:08.333Z,25.33
2018-02-24T15:57:35.058Z,22.83
2018-02-24T16:00:01.818Z,20.73
2018-02-24T16:02:28.702Z,20.80
2018-02-24T16:04:55.444Z,21.80
2018-02-24T16:07:22.151Z,20.83
2018-02-24T16:09:48.892Z,18.92
2018-02-24T16:12:15.686Z,20.30
2018-02-24T16:14:42.449Z,21.25
2018-02-24T16:17:09.195Z,22.30
2018-02-24T16:19:35.927Z,23.02
2018-02-24T16:22:02.730Z,21.70
2018-02-24T16:24:29.467Z,23.00
2018-02-24T16:26:56.232Z,22.30
2018-02-24T16:29:22.971Z,22.20
2018-02-24T16:31:49.692Z,23.48
2018-02-24T16:34:16.421Z,21.20
2018-02-24T16:36:43.135Z,20.15
2018-02-24T16:39:09.894Z,23.25
2018-02-24T16:41:36.628Z,22.87
2018-02-24T16:44:03.346Z,26.10
2018-02-24T16:46:30.103Z,22.58
2018-02-24T16:48:56.825Z,21.50
2018-02-24T16:51:23.646Z,22.15
2018-02-24T16:53:50.374Z,23.58
2018-02-24T16:56:17.110Z,23.38
2018-02-24T16:58:43.877Z,20.10
2018-02-24T17:01:10.646Z,21.42
2018-02-24T17:03:37.401Z,22.58
2018-02-24T17:06:04.114Z,23.70
2018-02-24T17:08:30.843Z,20.23
2018-02-24T17:10:57.584Z,18.48
2018-02-24T17:13:24.302Z,21.10
2018-02-24T17:15:51.071Z,22.50
2018-02-24T17:18:17.784Z,22.08
2018-02-24T17:20:44.585Z,19.33
2018-02-24T17:23:11.295Z,21.35
2018-02-24T17:25:38.044Z,23.87
2018-02-24T17:28:04.806Z,23.67
2018-02-24T17:30:31.546Z,22.23
2018-02-24T17:32:58.297Z,19.27
2018-02-24T17:35:25.029Z,19.00
2018-02-24T17:37:51.779Z,17.87
2018-02-24T17:40:18.507Z,18.58
2018-02-24T17:42:45.285Z,22.62
2018-02-24T17:45:11.997Z,23.50
2018-02-24T17:47:38.763Z,21.08
2018-02-24T17:50:05.556Z,18.80
2018-02-24T17:52:32.271Z,17.02
2018-02-24T17:54:59.026Z,15.40
2018-02-24T17:57:25.740Z,16.48
2018-02-24T17:59:52.536Z,16.17
2018-02-24T18:02:19.283Z,16.45
2018-02-24T18:04:46.026Z,15.23
2018-02-24T18:07:12.776Z,15.38
2018-02-24T18:09:39.515Z,15.23
2018-02-24T18:12:06.247Z,14.38
2018-02-24T18:14:32.981Z,14.77
2018-02-24T18:16:59.721Z,14.50
2018-02-24T18:19:26.468Z,16.23
2018-02-24T18:21:53.199Z,14.75
2018-02-24T18:24:19.951Z,15.45
2018-02-24T18:26:46.691Z,15.43
2018-02-24T18:29:13.439Z,13.85
2018-02-24T18:31:40.261Z,14.68
2018-02-24T18:34:06.959Z,14.13
2018-02-24T18:36:33.723Z,14.15
2018-02-24T18:39:00.435Z,15.07
2018-02-24T18:41:27.210Z,12.77
2018-02-24T18:43:54.023Z,14.95
2018-02-24T18:46:20.758Z,13.95
2018-02-24T18:48:47.514Z,14.02
2018-02-24T18:51:14.233Z,16.05
2018-02-24T18:53:40.981Z,14.50
2018-02-24T18:56:07.726Z,13.70
2018-02-24T18:58:34.456Z,40.88
2018-02-24T19:01:01.211Z,40.08
2018-02-24T19:03:27.940Z,18.02
2018-02-24T19:05:54.698Z,15.45
2018-02-24T19:08:21.452Z,16.15
2018-02-24T19:10:48.223Z,17.62
2018-02-24T19:13:14.988Z,16.60
2018-02-24T19:15:41.710Z,17.77
2018-02-24T19:18:08.487Z,63.97
2018-02-24T19:20:35.286Z,24.85
2018-02-24T19:23:02.073Z,19.35
2018-02-24T19:25:28.862Z,19.25
2018-02-24T19:27:55.602Z,19.67
2018-02-24T19:30:22.372Z,15.63
2018-02-24T19:32:49.105Z,14.75
2018-02-24T19:35:15.839Z,15.35
2018-02-24T19:37:42.574Z,15.13
2018-02-24T19:40:09.319Z,15.15
2018-02-24T19:42:36.035Z,14.73
2018-02-24T19:45:02.796Z,14.80
2018-02-24T19:47:29.510Z,14.52
2018-02-24T19:49:56.245Z,16.77
2018-02-24T19:52:23.012Z,15.70
2018-02-24T19:54:49.763Z,14.95
2018-02-24T19:57:16.488Z,15.88
2018-02-24T19:59:43.221Z,15.63
2018-02-24T20:02:09.949Z,17.15
2018-02-24T20:04:36.667Z,15.93
2018-02-24T20:07:03.441Z,15.88
2018-02-24T20:09:30.217Z,18.48
2018-02-24T20:11:56.937Z,17.15
2018-02-24T20:14:23.677Z,16.17
2018-02-24T20:16:50.424Z,17.05
2018-02-24T20:19:17.188Z,16.25
2018-02-24T20:21:43.918Z,15.50
2018-02-24T20:24:10.643Z,13.73
2018-02-24T20:26:37.393Z,13.77
2018-02-24T20:29:04.157Z,11.40
2018-02-24T20:31:30.891Z,10.23
2018-02-24T20:33:57.648Z,10.65
2018-02-24T20:36:24.363Z,9.75
2018-02-24T20:38:51.139Z,8.95
2018-02-24T20:41:17.858Z,9.68
2018-02-24T20:43:44.615Z,9.18
2018-02-24T20:46:11.399Z,9.52
2018-02-24T20:48:38.151Z,9.60
2018-02-24T20:51:04.898Z,12.32
2018-02-24T20:53:31.619Z,11.50
2018-02-24T20:55:58.373Z,12.75
2018-02-24T20:58:25.163Z,11.30
2018-02-24T21:00:51.929Z,12.88
2018-02-24T21:03:18.656Z,12.07
2018-02-24T21:05:45.374Z,11.52
2018-02-24T21:08:12.142Z,10.30
2018-02-24T21:10:38.870Z,9.88
2018-02-24T21:13:05.612Z,10.75
2018-02-24T21:15:32.358Z,10.50
2018-02-24T21:17:59.088Z,11.25
2018-02-24T21:20:25.817Z,9.93
2018-02-24T21:22:52.542Z,10.90
2018-02-24T21:25:19.280Z,10.95
2018-02-24T21:27:46.029Z,10.85
2018-02-24T21:30:12.752Z,12.20
2018-02-24T21:32:39.507Z,11.90
2018-02-24T21:35:06.244Z,10.68
2018-02-24T21:37:32.968Z,9.95
2018-02-24T21:39:59.708Z,10.30
2018-02-24T21:42:26.430Z,12.30
2018-02-24T21:44:53.201Z,10.80
2018-02-24T21:47:19.908Z,11.75
2018-02-24T21:49:46.649Z,9.40
2018-02-24T21:52:13.370Z,10.68
2018-02-24T21:54:40.079Z,10.05
2018-02-24T21:57:06.844Z,8.60
2018-02-24T21:59:33.541Z,8.15
2018-02-24T22:02:00.270Z,7.62
2018-02-24T22:04:26.992Z,7.15
2018-02-24T22:06:53.716Z,8.20
2018-02-24T22:09:20.443Z,7.53
2018-02-24T22:11:47.160Z,7.85
2018-02-24T22:14:13.899Z,6.47
2018-02-24T22:16:40.637Z,7.50
2018-02-24T22:19:07.377Z,7.45
2018-02-24T22:21:34.071Z,6.57
2018-02-24T22:24:00.792Z,6.87
2018-02-24T22:26:27.493Z,6.47
2018-02-24T22:28:54.237Z,7.00
2018-02-24T22:31:20.966Z,7.93
2018-02-24T22:33:47.669Z,6.68
2018-02-24T22:36:14.420Z,9.18
2018-02-24T22:38:41.115Z,6.70
2018-02-24T22:41:07.842Z,6.53
2018-02-24T22:43:34.590Z,7.07
2018-02-24T22:46:01.299Z,6.90
2018-02-24T22:48:33.809Z,7.95
2018-02-24T22:51:00.528Z,7.80
2018-02-24T22:53:27.282Z,8.02
2018-02-24T22:55:54.010Z,6.97
2018-02-24T22:58:20.745Z,7.07
2018-02-24T23:00:47.468Z,7.82
2018-02-24T23:03:14.165Z,6.82
2018-02-24T23:05:40.927Z,6.87
2018-02-24T23:08:07.623Z,6.85
2018-02-24T23:10:34.322Z,7.32
2018-02-24T23:13:01.066Z,6.47
2018-02-24T23:15:27.802Z,7.85
2018-02-24T23:17:54.532Z,6.10
2018-02-24T23:20:21.273Z,6.30
2018-02-24T23:22:47.991Z,6.55
2018-02-24T23:25:14.714Z,6.70
2018-02-24T23:27:41.440Z,6.82
2018-02-24T23:30:08.182Z,6.90
2018-02-24T23:32:34.887Z,7.28
2018-02-24T23:35:01.635Z,7.35
2018-02-24T23:37:28.341Z,6.40
2018-02-24T23:39:55.116Z,7.22
2018-02-24T23:42:21.843Z,7.10
2018-02-24T23:44:48.560Z,6.78
2018-02-24T23:47:15.326Z,6.90
2018-02-24T23:49:42.040Z,7.30
2018-02-24T23:52:08.767Z,6.45
2018-02-24T23:54:35.458Z,6.30
2018-02-24T23:57:02.193Z,7.32
2018-02-24T23:59:28.907Z,7.05
